Terminal Aerodrome Forecast
Issued by NWS Oklahoma City, OK

Current Version | Previous Version | Text Only | Print | Product List | Glossary On
Versions: 1 2 3 4 5 6 7 8 9 10 11 12 13 14
000
FTUS44 KOUN 272328
TAFOUN
TAF
KOUN 272328Z 2800/2824 16012G18KT P6SM BKN050 BKN100
     FM280600 17008KT P6SM SCT100
     FM281200 24009KT 6SM BR OVC015
     FM281800 36006KT P6SM OVC025
     FM282100 11008KT P6SM OVC050=

USA.gov is the U.S. government's official web portal to all federal, state and local government web resources and services.